Time;durP1;ratioP1;P1;durP2;ratioP2;P2;SDS_P1;SDS_P2;PMS_P1;PMS_P2;Temp;Humidity;BMP_temperature;BMP_pressure;BME280_temperature;BME280_humidity;BME280_pressure;Samples;Min_cycle;Max_cycle;Signal;HPM_P1;HPM_P2
2023/01/14 00:01:06;;;;;;;1999.90;999.90;;;4.30;99.90;;;;;;4991584;28;21196;-71
2023/01/14 00:03:31;;;;;;;1999.90;999.90;;;4.30;99.90;;;;;;4991899;28;20604;-71
2023/01/14 00:05:59;;;;;;;1999.90;999.90;;;4.30;99.90;;;;;;4991821;28;20426;-72
2023/01/14 00:08:26;;;;;;;1999.90;999.90;;;4.30;99.90;;;;;;4992191;28;20176;-72
2023/01/14 00:10:52;;;;;;;1999.90;999.90;;;4.30;99.90;;;;;;4991602;28;20898;-72
2023/01/14 00:13:17;;;;;;;1999.90;999.90;;;4.40;99.90;;;;;;4991548;28;20458;-72
2023/01/14 00:15:54;;;;;;;1366.17;669.17;;;4.40;99.90;;;;;;4991655;28;20428;-72
2023/01/14 00:18:20;;;;;;;91.43;40.67;;;4.40;99.90;;;;;;4991723;28;20211;-71
2023/01/14 00:21:03;;;;;;;226.70;69.70;;;4.30;99.90;;;;;;4991554;28;20419;-72
2023/01/14 00:23:30;;;;;;;344.57;94.13;;;4.20;99.90;;;;;;4991408;28;20942;-72
2023/01/14 00:26:04;;;;;;;224.53;52.03;;;4.10;99.90;;;;;;4991945;28;20423;-72
2023/01/14 00:28:30;;;;;;;125.17;64.23;;;4.00;99.90;;;;;;4991393;28;20434;-70
2023/01/14 00:31:04;;;;;;;303.27;26.10;;;4.00;99.90;;;;;;4991566;28;20431;-72
2023/01/14 00:33:30;;;;;;;116.77;18.17;;;3.90;99.90;;;;;;4991475;28;20217;-72
2023/01/14 00:35:55;;;;;;;194.27;19.10;;;3.90;99.90;;;;;;4991743;28;20900;-75
2023/01/14 00:38:21;;;;;;;5.53;1.20;;;3.90;99.90;;;;;;4991336;28;20176;-73
2023/01/14 00:40:46;;;;;;;5.63;1.30;;;3.80;99.90;;;;;;4991580;28;20206;-73
2023/01/14 00:43:12;;;;;;;5.63;2.07;;;3.90;99.90;;;;;;4991369;28;20621;-72
2023/01/14 00:45:37;;;;;;;4.90;1.67;;;3.90;99.90;;;;;;4992592;28;20201;-72
2023/01/14 00:48:03;;;;;;;106.60;42.33;;;3.90;99.90;;;;;;4994902;28;20201;-72
2023/01/14 00:50:29;;;;;;;16.03;2.17;;;3.80;99.90;;;;;;4995108;28;20183;-72
2023/01/14 00:52:54;;;;;;;11.10;2.50;;;3.80;99.90;;;;;;4994805;28;20694;-72
2023/01/14 00:55:20;;;;;;;5.60;1.30;;;3.70;99.90;;;;;;4977766;28;20187;-73
2023/01/14 00:57:45;;;;;;;6.10;1.37;;;3.60;99.90;;;;;;4995123;28;20193;-73
2023/01/14 01:00:11;;;;;;;7.23;2.00;;;3.60;99.90;;;;;;4995086;28;20604;-72
2023/01/14 01:02:37;;;;;;;55.77;6.23;;;3.50;99.90;;;;;;4994117;28;20211;-72
2023/01/14 01:05:02;;;;;;;67.63;25.07;;;3.40;99.90;;;;;;4977109;28;20586;-72
2023/01/14 01:07:28;;;;;;;11.10;2.10;;;3.40;99.90;;;;;;4994718;28;20252;-72
2023/01/14 01:09:53;;;;;;;171.03;38.40;;;3.40;99.90;;;;;;4994785;28;20703;-72
2023/01/14 01:12:20;;;;;;;3.63;1.80;;;3.30;99.90;;;;;;4994481;28;20298;-72
2023/01/14 01:14:47;;;;;;;8.30;2.57;;;3.30;99.90;;;;;;4994151;28;20206;-71
2023/01/14 01:17:13;;;;;;;5.00;1.60;;;3.30;99.90;;;;;;4994613;28;20518;-71
2023/01/14 01:19:38;;;;;;;5.03;2.40;;;3.30;99.90;;;;;;4994333;28;20790;-73
2023/01/14 01:22:04;;;;;;;5.63;1.70;;;3.20;99.90;;;;;;4994104;28;20848;-72
2023/01/14 01:24:29;;;;;;;5.87;1.60;;;3.30;99.90;;;;;;4994564;28;20186;-72
2023/01/14 01:26:57;;;;;;;12.37;2.07;;;3.30;99.90;;;;;;4994564;28;20198;-73
2023/01/14 01:29:22;;;;;;;5.73;2.27;;;3.30;99.90;;;;;;4994541;28;20178;-72
2023/01/14 01:31:48;;;;;;;6.97;1.80;;;3.30;99.90;;;;;;4993885;28;20548;-71
2023/01/14 01:34:13;;;;;;;4.77;1.70;;;3.20;99.90;;;;;;4994490;28;20226;-72
2023/01/14 01:36:39;;;;;;;136.87;101.07;;;3.10;99.90;;;;;;4994293;28;20168;-72
2023/01/14 01:39:04;;;;;;;102.97;14.93;;;3.10;99.90;;;;;;4994363;28;20233;-72
2023/01/14 01:41:32;;;;;;;81.57;6.57;;;3.10;99.90;;;;;;4993408;28;20712;-72
2023/01/14 01:44:07;;;;;;;86.37;10.67;;;3.10;99.90;;;;;;4994257;28;20173;-72
2023/01/14 01:46:34;;;;;;;222.00;61.17;;;3.00;99.90;;;;;;4993883;28;20934;-72
2023/01/14 01:49:08;;;;;;;322.53;36.00;;;3.00;99.90;;;;;;4994171;28;20425;-71
2023/01/14 01:51:41;;;;;;;452.63;111.60;;;2.90;99.90;;;;;;4993550;28;20477;-71
2023/01/14 01:54:07;;;;;;;1999.90;999.90;;;2.90;99.90;;;;;;4994089;28;20456;-72
2023/01/14 01:56:35;;;;;;;1999.90;999.90;;;2.90;99.90;;;;;;4993955;28;20440;-71
2023/01/14 01:59:06;;;;;;;1999.90;999.90;;;2.80;99.90;;;;;;4993148;28;20186;-72
2023/01/14 03:32:14;;;;;;;5.63;1.43;;;4.30;99.90;;;;;;5417239;23;20601;-76
2023/01/14 03:34:50;;;;;;;7.30;1.30;;;4.30;99.90;;;;;;5002962;28;20491;-74
2023/01/14 03:37:18;;;;;;;268.70;44.93;;;4.30;99.90;;;;;;4993638;28;20563;-74
2023/01/14 03:39:46;;;;;;;3.07;0.77;;;4.30;99.90;;;;;;5011342;28;20440;-74
2023/01/14 03:42:17;;;;;;;5.00;1.00;;;4.30;99.90;;;;;;5011081;28;20445;-73
2023/01/14 03:44:57;;;;;;;3.90;1.10;;;4.30;99.90;;;;;;4993672;28;20427;-74
2023/01/14 03:47:27;;;;;;;7.73;1.20;;;4.40;99.90;;;;;;5011306;28;20927;-74
2023/01/14 03:49:54;;;;;;;3.80;1.27;;;4.40;99.90;;;;;;5011898;28;20414;-73
2023/01/14 03:52:28;;;;;;;9.90;1.23;;;4.40;99.90;;;;;;5011010;28;20485;-74
2023/01/14 03:55:02;;;;;;;10.40;1.27;;;4.40;99.90;;;;;;5011107;28;20520;-74
2023/01/14 03:57:53;;;;;;;7.57;1.90;;;4.40;99.90;;;;;;5011386;28;20390;-74
2023/01/14 04:00:26;;;;;;;7.67;1.10;;;4.50;99.90;;;;;;5011391;28;20891;-75
2023/01/14 04:02:54;;;;;;;5.73;1.20;;;4.50;99.90;;;;;;5011027;28;20538;-74
2023/01/14 04:05:19;;;;;;;3.50;1.63;;;4.50;99.90;;;;;;5011506;28;20909;-74
2023/01/14 04:07:49;;;;;;;9.50;1.60;;;4.50;99.90;;;;;;5011064;28;20432;-75
2023/01/14 04:10:15;;;;;;;6.70;1.00;;;4.50;99.90;;;;;;5011163;28;20547;-73
2023/01/14 04:15:20;;;;;;;8.27;0.93;;;4.60;99.90;;;;;;4991283;28;20404;-74
2023/01/14 04:15:26;;;;;;;17.87;1.17;;;4.60;99.90;;;;;;4991726;28;20187;-73
2023/01/14 04:17:51;;;;;;;14.10;1.30;;;4.60;99.90;;;;;;4995474;28;20440;-73
2023/01/14 04:20:17;;;;;;;15.77;1.33;;;4.60;99.90;;;;;;5012860;28;20170;-74
2023/01/14 04:22:42;;;;;;;17.53;1.90;;;4.60;99.90;;;;;;4995874;28;20191;-74
2023/01/14 04:25:08;;;;;;;15.83;1.13;;;4.60;99.90;;;;;;4996510;28;20183;-75
2023/01/14 04:27:33;;;;;;;12.67;1.17;;;4.50;99.90;;;;;;4996127;28;20214;-74
2023/01/14 04:29:59;;;;;;;18.27;1.60;;;4.50;99.90;;;;;;5014494;28;20250;-73
2023/01/14 04:32:24;;;;;;;15.50;1.60;;;4.50;99.90;;;;;;5014069;28;20221;-75
2023/01/14 04:34:50;;;;;;;22.17;1.90;;;4.50;99.90;;;;;;5014854;28;20221;-74
2023/01/14 04:37:15;;;;;;;16.87;1.27;;;4.50;99.90;;;;;;5014974;28;20178;-74
2023/01/14 04:39:41;;;;;;;17.73;1.67;;;4.50;99.90;;;;;;5014618;28;20240;-74
2023/01/14 04:42:26;;;;;;;22.20;1.33;;;4.60;99.90;;;;;;4996868;28;20202;-73
2023/01/14 04:44:56;;;;;;;16.87;1.13;;;4.60;99.90;;;;;;5014303;28;20232;-73
2023/01/14 04:47:22;;;;;;;16.53;1.43;;;4.60;99.90;;;;;;5014458;28;20461;-74
2023/01/14 04:49:47;;;;;;;16.13;1.47;;;4.60;99.90;;;;;;5014328;28;20965;-73
2023/01/14 04:52:13;;;;;;;13.73;1.20;;;4.60;99.90;;;;;;4996682;28;20214;-73
2023/01/14 04:54:38;;;;;;;20.57;1.80;;;4.70;99.90;;;;;;5013975;28;20249;-73
2023/01/14 04:57:04;;;;;;;12.83;1.00;;;4.70;99.90;;;;;;5014619;28;20181;-75
2023/01/14 04:59:30;;;;;;;17.30;1.10;;;4.60;99.90;;;;;;5014231;28;20345;-74
2023/01/14 05:01:56;;;;;;;14.77;1.30;;;4.60;99.90;;;;;;5014210;28;20200;-73
2023/01/14 05:04:21;;;;;;;20.00;2.40;;;4.70;99.90;;;;;;5013663;28;20190;-74
2023/01/14 05:06:47;;;;;;;20.53;1.30;;;4.70;99.90;;;;;;5014111;28;20321;-75
2023/01/14 05:09:12;;;;;;;14.40;1.23;;;4.70;99.90;;;;;;5014112;28;20194;-74
2023/01/14 05:11:38;;;;;;;13.37;1.20;;;4.70;99.90;;;;;;4996033;28;20215;-74
2023/01/14 05:14:03;;;;;;;15.60;1.50;;;4.70;99.90;;;;;;5013944;28;20713;-74
2023/01/14 05:16:29;;;;;;;13.70;1.40;;;4.70;99.90;;;;;;5013909;28;20222;-74
2023/01/14 05:18:54;;;;;;;19.33;1.80;;;4.70;99.90;;;;;;5014076;28;20185;-73
2023/01/14 05:21:21;;;;;;;15.83;1.40;;;4.70;99.90;;;;;;5013000;28;20464;-74
2023/01/14 05:23:47;;;;;;;20.90;2.10;;;4.70;99.90;;;;;;5012850;28;20527;-73
2023/01/14 05:26:12;;;;;;;18.17;1.70;;;4.70;99.90;;;;;;5013914;28;20423;-73
2023/01/14 05:28:38;;;;;;;22.13;1.77;;;4.70;99.90;;;;;;5013526;28;20272;-74
2023/01/14 05:31:04;;;;;;;13.13;1.00;;;4.60;99.90;;;;;;4996361;28;20305;-72
2023/01/14 05:33:30;;;;;;;14.90;1.50;;;4.60;99.90;;;;;;5011948;28;20320;-74
2023/01/14 05:35:58;;;;;;;14.00;1.20;;;4.60;99.90;;;;;;5013691;28;20436;-73
2023/01/14 05:38:24;;;;;;;13.33;1.20;;;4.60;99.90;;;;;;5013292;28;20429;-73
2023/01/14 05:40:50;;;;;;;21.00;1.53;;;4.60;99.90;;;;;;5013798;28;20409;-74
2023/01/14 05:46:08;;;;;;;18.10;1.97;;;4.50;99.90;;;;;;5013975;28;20218;-73
2023/01/14 05:48:34;;;;;;;15.10;1.80;;;4.50;99.90;;;;;;5013114;28;20483;-74
2023/01/14 05:51:00;;;;;;;15.73;1.23;;;4.50;99.90;;;;;;5013198;28;20540;-74
2023/01/14 05:53:27;;;;;;;14.03;1.17;;;4.50;99.90;;;;;;5012951;28;20882;-75
2023/01/14 05:55:54;;;;;;;17.93;1.87;;;4.50;99.90;;;;;;5013561;28;20472;-75
2023/01/14 05:58:21;;;;;;;18.93;2.00;;;4.60;99.90;;;;;;5013387;28;20426;-75
2023/01/14 06:06:37;;;;;;;15.27;1.37;;;4.60;99.90;;;;;;5013675;28;20444;-75
2023/01/14 06:09:06;;;;;;;21.77;1.60;;;4.60;99.90;;;;;;5013082;28;20408;-74
2023/01/14 06:11:35;;;;;;;13.60;1.30;;;4.70;99.90;;;;;;5012637;28;20841;-73
2023/01/14 06:14:02;;;;;;;16.50;1.57;;;4.70;99.90;;;;;;5013259;28;20461;-74
2023/01/14 06:16:32;;;;;;;15.73;1.67;;;4.60;99.90;;;;;;5012964;28;20414;-74
2023/01/14 06:18:57;;;;;;;14.80;1.07;;;4.60;99.90;;;;;;5013062;28;20422;-74
2023/01/14 06:21:28;;;;;;;16.60;1.17;;;4.70;99.90;;;;;;5012134;28;20434;-74
2023/01/14 06:23:53;;;;;;;21.07;2.37;;;4.60;99.90;;;;;;4995234;28;20180;-73
2023/01/14 06:26:19;;;;;;;15.00;1.30;;;4.60;99.90;;;;;;5013102;28;20757;-74
2023/01/14 06:28:45;;;;;;;12.50;1.33;;;4.50;99.90;;;;;;5012942;28;20179;-74
2023/01/14 06:31:13;;;;;;;18.27;1.57;;;4.60;99.90;;;;;;5002303;28;20462;-75
2023/01/14 06:33:39;;;;;;;16.70;1.43;;;4.50;99.90;;;;;;5012226;28;20694;-75
2023/01/14 06:36:05;;;;;;;18.80;1.80;;;4.50;99.90;;;;;;5012904;28;20444;-74
2023/01/14 06:38:31;;;;;;;19.53;2.17;;;4.60;99.90;;;;;;5012504;28;20407;-75
2023/01/14 06:41:01;;;;;;;17.90;1.37;;;4.50;99.90;;;;;;5012609;28;20486;-74
2023/01/14 06:43:27;;;;;;;12.60;1.40;;;4.60;99.90;;;;;;5011983;28;20187;-74
2023/01/14 06:45:54;;;;;;;18.43;1.50;;;4.50;99.90;;;;;;5013153;28;20409;-74
2023/01/14 06:48:20;;;;;;;15.30;1.13;;;4.60;99.90;;;;;;5013104;28;20563;-74
2023/01/14 06:50:46;;;;;;;15.20;1.50;;;4.60;99.90;;;;;;5012332;28;20414;-74
2023/01/14 06:53:11;;;;;;;18.30;1.37;;;4.60;99.90;;;;;;5012054;28;20508;-75
2023/01/14 06:55:37;;;;;;;18.87;1.33;;;4.60;99.90;;;;;;5012300;28;20179;-75
2023/01/14 06:58:02;;;;;;;18.47;1.40;;;4.60;99.90;;;;;;5012649;28;20571;-76
2023/01/14 07:00:28;;;;;;;13.50;1.30;;;4.60;99.90;;;;;;5012220;28;20177;-74
2023/01/14 07:02:54;;;;;;;14.70;1.20;;;4.60;99.90;;;;;;5012260;28;20200;-74
2023/01/14 07:05:20;;;;;;;20.30;1.93;;;4.70;99.90;;;;;;5012259;28;20423;-74
2023/01/14 07:07:48;;;;;;;15.47;1.60;;;4.70;99.90;;;;;;5012262;28;20612;-75
2023/01/14 07:10:15;;;;;;;12.20;1.40;;;4.70;99.90;;;;;;5012628;28;20577;-74
2023/01/14 07:12:49;;;;;;;14.60;1.40;;;4.80;99.90;;;;;;5011537;28;20457;-74
2023/01/14 07:15:16;;;;;;;12.27;1.20;;;4.90;99.90;;;;;;5012448;28;20421;-75
2023/01/14 07:17:44;;;;;;;13.53;0.90;;;5.10;99.90;;;;;;5012045;28;20430;-74
2023/01/14 07:20:10;;;;;;;16.47;1.50;;;5.10;99.90;;;;;;5013417;28;20869;-74
2023/01/14 07:22:36;;;;;;;17.10;1.40;;;5.20;99.90;;;;;;5013411;28;20499;-74
2023/01/14 07:25:01;;;;;;;18.20;2.17;;;5.20;99.90;;;;;;5014037;28;20174;-75
2023/01/14 07:27:28;;;;;;;15.90;1.10;;;5.30;99.90;;;;;;5012724;28;20230;-74
2023/01/14 07:29:53;;;;;;;16.27;1.20;;;5.30;99.90;;;;;;5012239;28;20206;-74
2023/01/14 07:32:19;;;;;;;14.00;1.00;;;5.30;99.90;;;;;;5011375;28;20507;-75
2023/01/14 07:34:44;;;;;;;18.33;1.30;;;5.30;99.90;;;;;;5011768;28;20218;-74
2023/01/14 07:37:10;;;;;;;19.53;1.40;;;5.30;99.90;;;;;;5011492;28;20552;-74
2023/01/14 07:39:35;;;;;;;16.30;1.63;;;5.30;99.90;;;;;;4994458;28;20544;-74
2023/01/14 07:42:01;;;;;;;19.90;1.40;;;5.30;99.90;;;;;;5011387;28;20695;-73
2023/01/14 07:44:26;;;;;;;18.40;1.90;;;5.40;99.90;;;;;;5011922;28;20256;-74
2023/01/14 07:46:55;;;;;;;17.77;1.50;;;5.40;99.90;;;;;;5011881;28;20177;-74
2023/01/14 07:49:22;;;;;;;14.70;1.10;;;5.40;99.90;;;;;;5011750;28;20187;-73
2023/01/14 07:51:48;;;;;;;18.20;1.27;;;5.50;99.90;;;;;;5010735;28;20454;-72
2023/01/14 07:54:13;;;;;;;13.40;1.20;;;5.60;99.90;;;;;;5011335;28;20546;-74
2023/01/14 07:56:39;;;;;;;14.13;1.57;;;5.60;99.90;;;;;;4994687;28;20510;-74
2023/01/14 07:59:05;;;;;;;19.03;1.60;;;5.70;99.90;;;;;;4996433;28;20187;-74
2023/01/14 08:01:30;;;;;;;15.23;1.30;;;5.70;99.90;;;;;;5002406;28;20208;-73
2023/01/14 08:03:58;;;;;;;15.57;1.60;;;5.70;99.90;;;;;;5015417;28;20192;-73
2023/01/14 08:06:24;;;;;;;17.37;1.50;;;5.70;99.90;;;;;;5015675;28;20204;-74
2023/01/14 08:08:50;;;;;;;13.77;1.40;;;5.70;99.90;;;;;;5015528;28;20423;-74
2023/01/14 08:11:15;;;;;;;17.50;1.53;;;5.70;99.90;;;;;;5015202;28;20441;-74
2023/01/14 08:13:41;;;;;;;16.20;1.50;;;5.70;99.90;;;;;;5015380;28;20221;-74
2023/01/14 08:16:09;;;;;;;15.90;1.63;;;5.80;99.90;;;;;;5015544;28;20171;-74
2023/01/14 08:18:35;;;;;;;13.70;1.57;;;5.90;99.90;;;;;;5015092;28;20168;-75
2023/01/14 08:21:05;;;;;;;14.37;1.57;;;6.00;99.90;;;;;;5014932;28;20585;-73
2023/01/14 08:23:35;;;;;;;16.57;1.80;;;6.20;99.90;;;;;;5015402;28;20471;-73
2023/01/14 08:26:01;;;;;;;15.70;1.50;;;6.30;99.90;;;;;;5015290;28;20793;-74
2023/01/14 08:28:28;;;;;;;17.17;1.60;;;6.40;99.90;;;;;;5015178;28;20616;-75
2023/01/14 08:31:11;;;;;;;30.13;1.97;;;6.50;99.90;;;;;;5014651;28;20423;-72
2023/01/14 08:33:39;;;;;;;20.60;2.30;;;6.60;99.90;;;;;;5014537;28;20465;-73
2023/01/14 08:36:07;;;;;;;22.03;1.43;;;6.60;99.90;;;;;;5015407;28;20441;-73
2023/01/14 08:38:34;;;;;;;20.03;2.13;;;6.70;99.90;;;;;;5014876;28;20440;-74
2023/01/14 08:41:04;;;;;;;16.70;1.53;;;6.70;99.90;;;;;;5013788;28;20571;-73
2023/01/14 08:43:29;;;;;;;21.13;2.10;;;6.80;99.90;;;;;;4996520;28;20433;-73
2023/01/14 08:45:55;;;;;;;18.17;1.50;;;6.80;99.90;;;;;;5014784;28;20416;-72
2023/01/14 08:48:20;;;;;;;17.10;1.80;;;6.80;99.90;;;;;;5014794;28;20204;-74
2023/01/14 08:50:46;;;;;;;15.13;1.80;;;6.90;99.90;;;;;;5013654;28;20182;-73
2023/01/14 08:53:11;;;;;;;20.37;2.70;;;6.90;99.90;;;;;;5012533;28;20232;-74
2023/01/14 08:55:38;;;;;;;16.40;1.87;;;7.00;99.90;;;;;;5014224;28;20648;-73
2023/01/14 08:58:06;;;;;;;15.40;1.53;;;7.10;99.90;;;;;;5014737;28;20512;-73
2023/01/14 09:00:32;;;;;;;18.90;1.53;;;7.20;99.90;;;;;;5014166;28;20453;-73
2023/01/14 09:02:59;;;;;;;13.13;1.30;;;7.20;99.90;;;;;;5013583;28;20472;-74
2023/01/14 09:05:24;;;;;;;20.10;2.00;;;7.30;99.90;;;;;;5014225;28;20184;-73
2023/01/14 09:18:58;;;;;;;20.20;2.43;;;7.60;99.90;;;;;;5014438;28;20414;-74
2023/01/14 09:21:24;;;;;;;19.03;1.60;;;7.70;99.90;;;;;;4995914;28;20821;-73
2023/01/14 09:23:50;;;;;;;19.10;1.30;;;7.60;99.90;;;;;;5013727;28;20189;-74
2023/01/14 09:26:16;;;;;;;17.00;1.23;;;7.70;99.90;;;;;;5014066;28;20528;-74
2023/01/14 09:28:41;;;;;;;15.20;1.30;;;7.70;99.90;;;;;;5013503;28;20429;-74
2023/01/14 09:31:07;;;;;;;12.43;1.10;;;7.80;99.90;;;;;;5013553;28;20217;-75
2023/01/14 09:33:32;;;;;;;19.03;1.40;;;7.90;99.90;;;;;;5013193;28;20225;-74
2023/01/14 09:36:01;;;;;;;17.63;1.33;;;7.90;99.90;;;;;;5013841;28;20183;-71
2023/01/14 09:38:28;;;;;;;16.50;1.17;;;7.90;99.90;;;;;;5012991;28;20182;-75
2023/01/14 09:40:54;;;;;;;15.40;1.20;;;7.90;99.90;;;;;;5013835;28;20906;-75
2023/01/14 09:43:20;;;;;;;16.90;1.63;;;8.00;99.90;;;;;;5013210;28;20431;-74
2023/01/14 09:45:49;;;;;;;19.20;1.10;;;8.00;99.90;;;;;;5013546;28;20667;-74
2023/01/14 09:48:19;;;;;;;14.90;1.10;;;8.10;99.90;;;;;;5013542;28;20469;-75
2023/01/14 09:50:56;;;;;;;13.10;1.03;;;8.20;99.90;;;;;;5013362;28;20419;-74
2023/01/14 09:53:47;;;;;;;18.83;1.70;;;8.30;99.90;;;;;;5012873;28;21177;-74
2023/01/14 09:56:21;;;;;;;19.60;1.63;;;8.40;99.90;;;;;;5013605;28;20775;-76
2023/01/14 09:58:57;;;;;;;15.90;1.10;;;8.50;99.90;;;;;;4995478;28;20434;-74
2023/01/14 10:01:32;;;;;;;17.90;2.43;;;8.60;99.90;;;;;;5013071;28;20432;-75
2023/01/14 10:04:28;;;;;;;15.13;1.07;;;8.60;99.90;;;;;;5002332;28;20441;-74
2023/01/14 10:06:57;;;;;;;19.43;1.70;;;8.80;99.90;;;;;;5013294;28;20412;-74
2023/01/14 10:09:43;;;;;;;16.00;1.30;;;8.80;99.90;;;;;;5013265;28;20459;-74
2023/01/14 10:12:15;;;;;;;17.60;1.67;;;9.00;99.90;;;;;;5012647;28;20788;-74
2023/01/14 10:14:48;;;;;;;14.53;1.10;;;9.10;99.90;;;;;;5012410;28;20460;-74
2023/01/14 10:17:19;;;;;;;16.63;1.13;;;9.10;99.90;;;;;;5012957;28;20808;-74
2023/01/14 10:19:49;;;;;;;19.33;1.90;;;9.10;99.90;;;;;;5012517;28;20415;-75
2023/01/14 10:22:33;;;;;;;16.80;1.57;;;9.10;99.90;;;;;;5012591;28;20503;-76
2023/01/14 10:24:59;;;;;;;16.50;1.83;;;9.10;99.90;;;;;;5013085;28;20423;-74
2023/01/14 10:27:28;;;;;;;21.63;2.50;;;9.10;99.90;;;;;;5012989;28;20418;-73
2023/01/14 10:29:56;;;;;;;20.40;1.60;;;9.10;99.90;;;;;;5012732;28;20190;-74
2023/01/14 10:32:22;;;;;;;20.57;1.50;;;9.10;99.90;;;;;;5011997;28;20464;-74
2023/01/14 10:34:51;;;;;;;26.43;2.27;;;9.10;99.90;;;;;;5012562;28;20476;-74
2023/01/14 10:37:16;;;;;;;24.63;1.97;;;9.10;99.90;;;;;;5012716;28;20416;-75
2023/01/14 10:39:50;;;;;;;16.73;1.23;;;9.20;99.90;;;;;;5012772;28;20413;-75
2023/01/14 10:42:22;;;;;;;15.57;0.90;;;9.20;99.90;;;;;;5012535;28;20736;-75
2023/01/14 10:44:48;;;;;;;19.23;1.67;;;9.20;99.90;;;;;;5012470;28;20447;-74
2023/01/14 10:47:16;;;;;;;16.77;1.30;;;9.20;99.90;;;;;;4994784;28;20420;-75
2023/01/14 10:49:49;;;;;;;17.90;1.43;;;9.20;99.90;;;;;;5012536;28;20257;-74
2023/01/14 10:52:28;;;;;;;17.57;1.30;;;9.20;99.90;;;;;;5012102;28;20470;-72
2023/01/14 10:54:58;;;;;;;15.43;1.20;;;9.20;99.90;;;;;;5012051;28;20460;-74
2023/01/14 10:57:25;;;;;;;17.07;1.47;;;9.30;99.90;;;;;;5012188;28;20565;-75
2023/01/14 10:59:54;;;;;;;20.53;1.47;;;9.30;99.90;;;;;;5012305;28;20776;-74
2023/01/14 11:02:30;;;;;;;17.70;1.10;;;9.40;99.90;;;;;;5012128;28;20448;-74
2023/01/14 11:04:56;;;;;;;16.63;1.17;;;9.40;99.90;;;;;;5012148;28;20792;-74
2023/01/14 11:07:36;;;;;;;17.77;2.10;;;9.40;99.90;;;;;;5011981;28;20436;-74
2023/01/14 11:10:20;;;;;;;19.70;1.30;;;9.40;99.90;;;;;;5012345;28;20437;-74
2023/01/14 11:12:46;;;;;;;20.37;2.13;;;9.50;99.90;;;;;;5012607;28;20432;-74
2023/01/14 11:15:40;;;;;;;19.07;1.03;;;9.40;99.90;;;;;;5012902;28;20457;-75
2023/01/14 11:18:26;;;;;;;19.40;0.93;;;9.40;99.90;;;;;;5012449;28;20262;-74
2023/01/14 11:21:15;;;;;;;17.03;1.10;;;9.50;99.90;;;;;;5011785;28;20518;-73
2023/01/14 11:23:52;;;;;;;17.70;1.33;;;9.50;99.90;;;;;;5012224;28;20420;-75
2023/01/14 11:26:30;;;;;;;18.83;0.90;;;9.50;99.90;;;;;;5012748;28;20435;-75
2023/01/14 11:29:15;;;;;;;20.40;0.90;;;9.50;99.90;;;;;;5007013;28;21101;-74
2023/01/14 11:31:43;;;;;;;16.57;1.17;;;9.50;99.90;;;;;;5011023;28;20457;-74
2023/01/14 11:34:38;;;;;;;16.50;0.93;;;9.60;99.90;;;;;;5012098;28;21035;-74
2023/01/14 11:37:10;;;;;;;19.60;1.50;;;9.70;99.90;;;;;;4997206;28;20431;-76
2023/01/14 11:39:40;;;;;;;17.90;1.00;;;9.70;99.90;;;;;;5012004;28;20409;-75
2023/01/14 11:42:38;;;;;;;18.30;1.10;;;9.70;99.90;;;;;;5011460;28;20468;-75
2023/01/14 11:45:24;;;;;;;18.30;1.43;;;9.70;99.90;;;;;;4958531;28;20436;-75
2023/01/14 11:47:57;;;;;;;18.63;1.03;;;9.80;99.90;;;;;;4993529;28;20431;-75
2023/01/14 11:50:32;;;;;;;18.50;1.47;;;9.80;99.90;;;;;;5011444;28;20413;-75
2023/01/14 11:53:03;;;;;;;18.40;0.80;;;9.80;99.90;;;;;;5006639;28;20456;-74
2023/01/14 11:55:32;;;;;;;43.77;2.40;;;9.90;99.90;;;;;;5002115;28;20442;-74
2023/01/14 11:58:18;;;;;;;44.93;1.57;;;9.90;99.90;;;;;;5003775;28;20433;-74
2023/01/14 12:00:53;;;;;;;22.70;1.07;;;9.80;99.90;;;;;;5007988;28;20434;-73
2023/01/14 12:03:34;;;;;;;21.67;1.40;;;9.90;99.90;;;;;;5009625;28;20456;-74
2023/01/14 12:06:07;;;;;;;23.17;1.70;;;10.00;99.90;;;;;;5011076;28;20417;-74
2023/01/14 12:08:35;;;;;;;19.97;1.37;;;9.90;99.90;;;;;;5011384;28;20433;-73
2023/01/14 12:11:03;;;;;;;22.60;1.63;;;10.00;99.90;;;;;;5011050;28;20452;-74
2023/01/14 12:16:49;;;;;;;19.70;1.20;;;10.00;99.90;;;;;;5011145;28;20456;-74
2023/01/14 12:19:20;;;;;;;18.77;0.97;;;10.00;99.90;;;;;;4991743;28;21015;-74
2023/01/14 12:22:15;;;;;;;22.50;1.20;;;10.00;99.90;;;;;;4991328;28;20446;-74
2023/01/14 12:24:50;;;;;;;20.80;1.00;;;9.90;99.90;;;;;;4991701;28;20445;-73
2023/01/14 12:27:43;;;;;;;24.03;1.20;;;9.90;99.90;;;;;;5010897;28;20456;-72
2023/01/14 12:30:26;;;;;;;22.63;1.40;;;9.90;99.90;;;;;;5010900;28;20451;-75
2023/01/14 12:33:09;;;;;;;20.57;1.20;;;9.90;99.90;;;;;;5010918;28;20461;-75
2023/01/14 12:36:14;;;;;;;23.07;3.70;;;9.90;99.90;;;;;;5010709;28;20790;-74
2023/01/14 12:45:44;;;;;;;25.63;1.37;;;9.80;99.90;;;;;;5011531;28;20428;-74
2023/01/14 12:48:21;;;;;;;25.57;1.03;;;9.80;99.90;;;;;;5012099;28;20425;-75
2023/01/14 12:50:59;;;;;;;23.60;1.13;;;9.80;99.90;;;;;;5002932;28;20413;-76
2023/01/14 12:53:29;;;;;;;21.60;1.73;;;9.80;99.90;;;;;;4995040;28;20532;-74
2023/01/14 12:55:58;;;;;;;22.37;1.30;;;9.80;99.90;;;;;;4994973;28;20871;-75
2023/01/14 12:58:28;;;;;;;22.27;1.00;;;9.80;99.90;;;;;;5011965;28;20437;-73
2023/01/14 13:01:02;;;;;;;26.30;1.30;;;9.70;99.90;;;;;;5013929;28;20425;-74
2023/01/14 13:03:37;;;;;;;23.70;1.00;;;9.80;99.90;;;;;;4996481;28;20453;-75
2023/01/14 13:06:13;;;;;;;23.17;1.03;;;9.70;99.90;;;;;;5011272;28;20955;-76
2023/01/14 13:08:40;;;;;;;24.00;1.00;;;9.80;99.90;;;;;;5013453;28;20448;-74
2023/01/14 13:11:27;;;;;;;23.93;1.03;;;9.80;99.90;;;;;;5013500;28;20469;-75
2023/01/14 13:13:55;;;;;;;23.00;1.00;;;9.80;99.90;;;;;;5014158;28;20464;-75
2023/01/14 13:16:32;;;;;;;26.97;1.50;;;9.70;99.90;;;;;;5002836;28;20430;-75
2023/01/14 13:19:00;;;;;;;25.27;1.57;;;9.70;99.90;;;;;;5010818;28;20421;-74
2023/01/14 13:21:54;;;;;;;24.70;1.00;;;9.70;99.90;;;;;;5010871;28;21041;-76
2023/01/14 13:24:57;;;;;;;25.97;1.50;;;9.80;99.90;;;;;;5006258;28;20413;-75
2023/01/14 13:27:40;;;;;;;25.83;1.27;;;9.80;99.90;;;;;;5013263;28;20448;-75
2023/01/14 13:30:17;;;;;;;26.87;1.40;;;9.70;99.90;;;;;;5013549;28;20422;-75
2023/01/14 13:33:07;;;;;;;30.83;1.20;;;9.80;99.90;;;;;;4993876;28;20450;-75
2023/01/14 13:35:35;;;;;;;19.83;1.47;;;9.80;99.90;;;;;;4996566;28;20427;-74
2023/01/14 13:38:03;;;;;;;20.70;1.27;;;9.80;99.90;;;;;;5013328;28;20544;-74
2023/01/14 13:40:33;;;;;;;19.90;1.20;;;9.80;99.90;;;;;;5010579;28;20436;-73
2023/01/14 13:43:06;;;;;;;20.57;1.23;;;9.80;99.90;;;;;;4977531;28;20433;-75
2023/01/14 13:45:34;;;;;;;20.77;1.27;;;9.80;99.90;;;;;;4995781;28;20417;-74
2023/01/14 13:48:14;;;;;;;21.20;1.73;;;9.80;99.90;;;;;;5010631;28;20444;-74
2023/01/14 13:50:40;;;;;;;21.30;1.20;;;9.80;99.90;;;;;;4994900;28;20418;-75
2023/01/14 13:53:26;;;;;;;24.73;1.07;;;9.80;99.90;;;;;;5012304;28;20520;-75
2023/01/14 13:55:58;;;;;;;21.93;1.17;;;9.80;99.90;;;;;;5008705;28;20414;-74
2023/01/14 13:58:48;;;;;;;25.83;1.20;;;9.80;99.90;;;;;;5012141;28;20837;-74
2023/01/14 14:01:22;;;;;;;21.83;1.23;;;9.80;99.90;;;;;;5006508;28;20876;-72
2023/01/14 14:03:49;;;;;;;23.80;1.60;;;9.80;99.90;;;;;;5008373;28;20438;-73
2023/01/14 14:06:21;;;;;;;26.07;2.00;;;9.80;99.90;;;;;;5015630;28;20415;-75
2023/01/14 14:09:17;;;;;;;26.03;1.50;;;9.80;99.90;;;;;;5012709;28;20420;-74
2023/01/14 14:11:46;;;;;;;22.00;1.50;;;9.80;99.90;;;;;;5000003;28;20982;-74
2023/01/14 14:14:20;;;;;;;21.40;1.63;;;9.80;99.90;;;;;;5022559;28;20482;-76
2023/01/14 14:16:59;;;;;;;25.33;1.37;;;9.90;99.90;;;;;;5015710;28;20531;-77
2023/01/14 14:19:57;;;;;;;20.03;1.20;;;9.80;99.90;;;;;;5012695;28;20420;-75
2023/01/14 14:22:26;;;;;;;20.30;1.20;;;9.80;99.90;;;;;;5005124;28;20463;-74
2023/01/14 14:24:56;;;;;;;21.00;1.60;;;9.90;99.90;;;;;;4995988;28;20788;-74
2023/01/14 14:27:26;;;;;;;19.40;1.10;;;10.00;99.90;;;;;;5012459;28;20807;-75
2023/01/14 14:29:56;;;;;;;25.90;1.63;;;10.00;99.90;;;;;;5012665;28;20949;-75
2023/01/14 14:32:27;;;;;;;26.60;1.60;;;10.00;99.90;;;;;;4995560;28;20568;-75
2023/01/14 14:35:20;;;;;;;19.70;1.10;;;10.10;99.90;;;;;;5014555;28;20464;-74
2023/01/14 14:37:52;;;;;;;22.27;1.27;;;10.10;99.90;;;;;;5010345;28;20880;-75
2023/01/14 14:40:25;;;;;;;21.77;1.10;;;10.20;99.90;;;;;;5013011;28;20783;-75
2023/01/14 14:42:51;;;;;;;19.50;0.90;;;10.20;99.90;;;;;;4994584;28;20540;-75
2023/01/14 14:45:40;;;;;;;19.93;0.87;;;10.20;99.90;;;;;;4994380;28;20421;-75
2023/01/14 14:48:25;;;;;;;19.40;0.80;;;10.30;99.90;;;;;;4982998;28;20436;-74
2023/01/14 14:50:50;;;;;;;18.20;0.80;;;10.30;99.90;;;;;;5010957;28;20441;-74
2023/01/14 14:53:32;;;;;;;22.47;1.23;;;10.30;99.90;;;;;;5012393;28;20952;-75
2023/01/14 14:56:04;;;;;;;20.27;1.10;;;10.20;99.90;;;;;;5009641;28;20240;-74
2023/01/14 14:58:30;;;;;;;19.87;0.97;;;10.20;99.90;;;;;;4995058;28;20438;-74
2023/01/14 15:00:59;;;;;;;21.97;1.00;;;10.30;99.90;;;;;;5011835;28;20954;-75
2023/01/14 15:03:29;;;;;;;20.27;0.80;;;10.30;99.90;;;;;;5012112;28;20443;-74